Hutchinson Municipal Airport
KHUT : rendu visible

Aérodrome :











RETROUVEZ-NOUS SUR...

 
LOGIN :

S'inscrire | Disclaimer

   EN    FR    IT 

 









Légende :    VFR   VFR Marginal   IFR   IFR Intensif   IFR Très Intensif
Visi : 
Plafond : 
>= 8 km
>= 3000ft
5 à 8 km
1000 à 3000 ft
1500m à 5 km
500 à 1000 ft
800 à 1500m
200 à 500 ft
< 800m
< 200 ft
Symboles :   Orages  Brouillard  Fortes neiges  Fortes précipitations  Vent > 20 kt






- Altitude de l'aérodrome : 1543 ft


KHUT - Hutchinson Municipal

DERNIER METAR :
  • 162252Z 18014KT 10SM CLR 16/M01 A2993 RMK AO2 PK WND 17030/2205 SLP128 T01561006

METARs EXPIRÉS :
  • 162152Z 17020G26KT 10SM CLR 18/M01 A2992 RMK AO2 PK WND 19031/2106 SLP123 T01781006
  • 162052Z 17020G30KT 10SM CLR 18/M01 A2992 RMK AO2 PK WND 18034/2001 SLP125 T01781006 56033

TAF KHUT
Valide du 17 à 00h jusqu'au 18 à 00h UTC


162340Z 1700/1724 17013KT P6SM BKN200
FM170400 19007KT P6SM OVC150
FM170700 23004KT P6SM OVC120
FM170900 34017KT P6SM OVC080
FM171500 34017G22KT P6SM BKN025
FM171800 34013KT P6SM SCT030



MET'MAP, la Météo Aéronautique d'un coup d'oeil ! - Copyright ORBIFLY Décembre 2007 - Disclaimer

ORBIFLY MET'MAP TEAM :

Programmation & Développement : Alexandra Zaïnal
Conception & Développement : Baudouin d'Aumeries
Co-Programmation & Développement : Marc-Olivier Méhu
Soutien technique & logistique : Manuel Goepfert

Contact : metmap@orbifly.com




SOURCES & CREDITS :

   NOAA       Earth
Advisory